Terminal Aerodrome Forecast
Issued by NWS Denver/Boulder, CO

Home | Current Version | Previous Version | Text Only | Print | Product List | Glossary On
Versions: 1 2 3 4 5 6 7 8 9 10 11 12 13 14 15 16 17 18 19 20 21 22 23 24 25 26 27 28 29 30 31 32 33 34 35 36 37 38 39 40 41 42 43 44 45 46 47 48 49 50
333
FTUS45 KBOU 292201 AAC
TAFDEN
TAF AMD
KDEN 292201Z 2922/3024 35015KT 1 1/2SM -SN BR SCT005 OVC012
      TEMPO 2922/2923 1/4SM +SN FZFG BKN004
     FM292300 02014G24KT 3SM -SN BKN015 OVC024
     FM300000 35014KT P6SM SCT025 BKN040
     FM300500 32010KT P6SM SCT040 BKN090
     FM301100 34014KT P6SM SCT090
     FM301800 36018G28KT P6SM FEW090=

USA.gov is the U.S. government's official web portal to all federal, state and local government web resources and services.